createdAt,value
2018-11-23T00:00:14.927Z,2.50
2018-11-23T00:02:44.592Z,2.50
2018-11-23T00:05:13.090Z,2.50
2018-11-23T00:07:42.169Z,2.50
2018-11-23T00:10:13.126Z,2.50
2018-11-23T00:12:41.386Z,2.60
2018-11-23T00:15:12.162Z,2.60
2018-11-23T00:17:40.410Z,2.60
2018-11-23T00:20:11.278Z,2.60
2018-11-23T00:22:39.628Z,2.60
2018-11-23T00:25:10.483Z,2.40
2018-11-23T00:27:38.940Z,2.20
2018-11-23T00:30:10.084Z,2.20
2018-11-23T00:32:38.707Z,2.30
2018-11-23T00:35:08.899Z,2.10
2018-11-23T00:37:37.149Z,2.10
2018-11-23T00:40:07.294Z,2.00
2018-11-23T00:42:35.582Z,2.00
2018-11-23T00:45:04.690Z,1.90
2018-11-23T00:47:32.946Z,2.00
2018-11-23T00:50:01.152Z,2.00
2018-11-23T00:52:29.597Z,1.90
2018-11-23T00:54:57.783Z,1.80
2018-11-23T00:57:26.007Z,1.80
2018-11-23T00:59:54.323Z,2.00
2018-11-23T01:02:22.544Z,2.10
2018-11-23T01:04:50.790Z,2.10
2018-11-23T01:07:19.030Z,2.20
2018-11-23T01:09:47.225Z,2.30
2018-11-23T01:12:15.494Z,2.20
2018-11-23T01:14:43.749Z,1.90
2018-11-23T01:17:12.008Z,2.00
2018-11-23T01:19:40.254Z,2.10
2018-11-23T01:22:08.494Z,2.10
2018-11-23T01:24:36.719Z,2.10
2018-11-23T01:27:04.979Z,2.10
2018-11-23T01:29:33.221Z,2.20
2018-11-23T01:32:01.483Z,2.30
2018-11-23T01:34:29.695Z,2.40
2018-11-23T01:36:57.974Z,2.40
2018-11-23T01:39:26.238Z,2.30
2018-11-23T01:41:54.506Z,2.30
2018-11-23T01:44:22.775Z,2.40
2018-11-23T01:46:57.651Z,2.40
2018-11-23T01:49:25.862Z,2.30
2018-11-23T01:51:54.090Z,2.10
2018-11-23T01:54:22.374Z,2.10
2018-11-23T01:56:50.648Z,2.10
2018-11-23T01:59:18.889Z,2.10
2018-11-23T02:01:47.120Z,2.20
2018-11-23T02:04:15.341Z,2.20
2018-11-23T02:06:43.542Z,2.30
2018-11-23T02:09:11.695Z,2.30
2018-11-23T02:11:39.933Z,2.40
2018-11-23T02:14:08.109Z,2.40
2018-11-23T02:16:36.306Z,2.50
2018-11-23T02:19:04.475Z,2.50
2018-11-23T02:21:32.656Z,2.50
2018-11-23T02:24:00.850Z,2.50
2018-11-23T02:26:29.060Z,2.50
2018-11-23T02:28:57.231Z,2.60
2018-11-23T02:31:30.295Z,2.60
2018-11-23T02:33:58.499Z,2.70
2018-11-23T02:36:26.720Z,2.70
2018-11-23T02:38:55.011Z,2.70
2018-11-23T02:41:23.182Z,2.70
2018-11-23T02:43:51.471Z,2.70
2018-11-23T02:46:20.063Z,2.70
2018-11-23T02:48:48.267Z,2.70
2018-11-23T02:51:16.462Z,2.70
2018-11-23T02:53:44.660Z,2.60
2018-11-23T02:56:12.854Z,2.60
2018-11-23T02:58:41.043Z,2.60
2018-11-23T03:01:09.227Z,2.60
2018-11-23T03:03:37.423Z,2.50
2018-11-23T03:06:05.643Z,2.50
2018-11-23T03:08:33.824Z,2.50
2018-11-23T03:11:02.026Z,2.50
2018-11-23T03:13:30.203Z,2.50
2018-11-23T03:15:58.421Z,2.50
2018-11-23T03:18:26.682Z,2.50
2018-11-23T03:20:54.884Z,2.50
2018-11-23T03:23:23.084Z,2.60
2018-11-23T03:25:51.259Z,2.50
2018-11-23T03:28:19.470Z,2.50
2018-11-23T03:30:47.655Z,2.40
2018-11-23T03:33:15.839Z,2.50
2018-11-23T03:35:44.077Z,2.50
2018-11-23T03:38:12.350Z,2.50
2018-11-23T03:40:40.573Z,2.50
2018-11-23T03:43:08.804Z,2.50
2018-11-23T03:45:37.015Z,2.50
2018-11-23T03:48:05.271Z,2.60
2018-11-23T03:50:33.480Z,2.60
2018-11-23T03:53:01.696Z,2.60
2018-11-23T03:55:29.928Z,2.60
2018-11-23T03:57:58.187Z,2.60
2018-11-23T04:00:26.444Z,2.60
2018-11-23T04:02:54.652Z,2.60
2018-11-23T04:05:22.877Z,2.50
2018-11-23T04:07:51.152Z,2.50
2018-11-23T04:10:19.401Z,2.50
2018-11-23T04:12:47.601Z,2.60
2018-11-23T04:15:16.050Z,2.60
2018-11-23T04:17:44.270Z,2.60
2018-11-23T04:20:13.827Z,2.60
2018-11-23T04:22:42.678Z,2.60
2018-11-23T04:25:11.410Z,2.60
2018-11-23T04:27:39.779Z,2.70
2018-11-23T04:30:11.852Z,2.70
2018-11-23T04:32:40.382Z,2.80
2018-11-23T04:35:10.827Z,2.80
2018-11-23T04:37:39.032Z,2.80
2018-11-23T04:40:08.533Z,2.80
2018-11-23T04:42:36.705Z,2.70
2018-11-23T04:45:05.087Z,2.60
2018-11-23T04:47:33.280Z,2.60
2018-11-23T04:50:01.537Z,2.70
2018-11-23T04:52:29.769Z,2.60
2018-11-23T04:54:57.995Z,2.60
2018-11-23T04:57:26.283Z,2.60
2018-11-23T04:59:54.516Z,2.70
2018-11-23T05:02:22.736Z,2.70
2018-11-23T05:04:51.019Z,2.70
2018-11-23T05:07:19.605Z,2.70
2018-11-23T05:09:47.816Z,2.70
2018-11-23T05:12:16.084Z,2.70
2018-11-23T05:14:44.331Z,2.70
2018-11-23T05:17:12.577Z,2.70
2018-11-23T05:19:40.903Z,2.60
2018-11-23T05:22:09.178Z,2.60
2018-11-23T05:24:37.381Z,2.50
2018-11-23T05:27:06.092Z,2.50
2018-11-23T05:29:34.311Z,2.60
2018-11-23T05:32:02.592Z,2.50
2018-11-23T05:34:30.863Z,2.50
2018-11-23T05:36:59.120Z,2.60
2018-11-23T05:39:27.387Z,2.60
2018-11-23T05:41:55.616Z,2.50
2018-11-23T05:44:23.869Z,2.50
2018-11-23T05:46:52.108Z,2.60
2018-11-23T05:49:20.321Z,2.50
2018-11-23T05:51:48.649Z,2.40
2018-11-23T05:54:16.924Z,2.20
2018-11-23T05:56:45.195Z,2.20
2018-11-23T05:59:13.483Z,2.30
2018-11-23T06:01:41.772Z,2.40
2018-11-23T06:04:10.041Z,2.30
2018-11-23T06:06:42.241Z,2.20
2018-11-23T06:09:07.737Z,2.30
2018-11-23T06:11:36.239Z,2.50
2018-11-23T06:14:04.572Z,2.50
2018-11-23T06:16:32.999Z,2.40
2018-11-23T06:19:01.324Z,2.20
2018-11-23T06:21:29.694Z,2.20
2018-11-23T06:23:57.956Z,2.30
2018-11-23T06:26:27.739Z,2.20
2018-11-23T06:28:55.955Z,2.30
2018-11-23T06:31:24.235Z,2.40
2018-11-23T06:33:52.457Z,2.50
2018-11-23T06:36:20.715Z,2.50
2018-11-23T06:38:48.929Z,2.40
2018-11-23T06:41:17.275Z,2.20
2018-11-23T06:43:45.872Z,2.10
2018-11-23T06:46:14.124Z,2.10
2018-11-23T06:48:42.411Z,2.00
2018-11-23T06:51:11.115Z,2.10
2018-11-23T06:53:39.327Z,2.10
2018-11-23T06:56:08.171Z,2.20
2018-11-23T06:58:36.525Z,2.30
2018-11-23T07:01:05.064Z,2.30
2018-11-23T07:03:33.336Z,2.30
2018-11-23T07:06:01.672Z,2.20
2018-11-23T07:08:30.037Z,2.40
2018-11-23T07:11:03.506Z,2.50
2018-11-23T07:13:32.500Z,2.40
2018-11-23T07:16:00.771Z,2.40
2018-11-23T07:18:29.259Z,2.40
2018-11-23T07:20:57.735Z,2.40
2018-11-23T07:23:26.300Z,2.40
2018-11-23T07:25:54.939Z,2.40
2018-11-23T07:31:05.861Z,2.50
2018-11-23T07:33:34.211Z,2.40
2018-11-23T07:36:02.480Z,2.40
2018-11-23T07:38:30.743Z,2.40
2018-11-23T07:41:10.512Z,2.20
2018-11-23T07:43:38.760Z,2.20
2018-11-23T07:46:07.044Z,2.30
2018-11-23T07:48:35.449Z,2.40
2018-11-23T07:51:03.700Z,2.40
2018-11-23T07:53:31.927Z,2.40
2018-11-23T07:56:00.215Z,2.20
2018-11-23T07:58:28.754Z,2.20
2018-11-23T08:00:57.023Z,2.10
2018-11-23T08:03:25.340Z,2.10
2018-11-23T08:05:53.608Z,2.00
2018-11-23T08:08:21.866Z,2.00
2018-11-23T08:10:49.391Z,1.90
2018-11-23T08:13:17.647Z,1.90
2018-11-23T08:15:45.934Z,1.90
2018-11-23T08:18:14.227Z,1.90
2018-11-23T08:20:42.488Z,1.90
2018-11-23T08:23:10.796Z,1.90
2018-11-23T08:25:39.060Z,2.10
2018-11-23T08:28:07.299Z,2.10
2018-11-23T08:30:35.590Z,2.10
2018-11-23T08:33:03.915Z,2.20
2018-11-23T08:35:32.160Z,2.30
2018-11-23T08:38:00.477Z,2.40
2018-11-23T08:40:28.757Z,2.40
2018-11-23T08:42:57.305Z,2.50
2018-11-23T08:45:26.697Z,2.40
2018-11-23T08:47:55.062Z,2.50
2018-11-23T08:50:30.424Z,2.40
2018-11-23T08:52:58.725Z,2.20
2018-11-23T08:55:27.371Z,2.20
2018-11-23T08:57:55.607Z,2.30
2018-11-23T09:00:25.190Z,2.30
2018-11-23T09:02:55.001Z,2.40
2018-11-23T09:05:23.212Z,2.50
2018-11-23T09:07:52.676Z,2.40
2018-11-23T09:10:25.375Z,2.50
2018-11-23T09:12:55.397Z,2.60
2018-11-23T09:15:23.669Z,2.70
2018-11-23T09:17:51.971Z,2.60
2018-11-23T09:20:20.299Z,2.40
2018-11-23T09:22:48.551Z,2.20
2018-11-23T09:25:18.325Z,2.20
2018-11-23T09:27:46.586Z,2.20
2018-11-23T09:30:17.445Z,2.20
2018-11-23T09:32:46.528Z,2.30
2018-11-23T09:35:14.784Z,2.40
2018-11-23T09:37:43.483Z,2.50
2018-11-23T09:40:14.095Z,2.60
2018-11-23T09:42:42.482Z,2.70
2018-11-23T09:45:14.168Z,2.80
2018-11-23T09:47:42.662Z,2.70
2018-11-23T09:50:12.799Z,2.70
2018-11-23T09:52:41.082Z,2.50
2018-11-23T09:55:09.624Z,2.40
2018-11-23T09:57:38.191Z,2.30
2018-11-23T10:00:09.776Z,2.20
2018-11-23T10:02:38.099Z,2.30
2018-11-23T10:05:07.008Z,2.50
2018-11-23T10:07:35.217Z,2.60
2018-11-23T10:10:03.649Z,2.60
2018-11-23T10:12:31.902Z,2.50
2018-11-23T10:15:00.132Z,2.50
2018-11-23T10:17:28.415Z,2.50
2018-11-23T10:19:58.136Z,2.50
2018-11-23T10:22:25.007Z,2.40
2018-11-23T10:24:53.295Z,2.40
2018-11-23T10:27:21.582Z,2.50
2018-11-23T10:29:55.138Z,2.70
2018-11-23T10:32:18.067Z,2.90
2018-11-23T10:34:46.336Z,2.90
2018-11-23T10:37:14.642Z,2.90
2018-11-23T10:39:42.933Z,2.80
2018-11-23T10:42:11.285Z,2.80
2018-11-23T10:44:39.487Z,2.80
2018-11-23T10:47:07.735Z,2.80
2018-11-23T10:49:35.989Z,3.00
2018-11-23T10:52:04.748Z,2.90
2018-11-23T10:54:33.040Z,3.00
2018-11-23T10:57:01.380Z,3.00
2018-11-23T10:59:29.576Z,3.00
2018-11-23T11:02:03.776Z,3.00
2018-11-23T11:05:36.087Z,2.90
2018-11-23T11:08:05.147Z,2.90
2018-11-23T11:10:33.433Z,2.90
2018-11-23T11:13:01.687Z,2.80
2018-11-23T11:15:29.960Z,2.80
2018-11-23T11:17:58.237Z,2.70
2018-11-23T11:20:26.467Z,2.60
2018-11-23T11:22:54.703Z,2.80
2018-11-23T11:25:22.992Z,2.90
2018-11-23T11:27:51.245Z,3.00
2018-11-23T11:30:19.986Z,2.90
2018-11-23T11:32:48.552Z,2.80
2018-11-23T11:35:16.797Z,2.70
2018-11-23T11:37:45.327Z,2.80
2018-11-23T11:40:15.131Z,2.90
2018-11-23T11:42:43.853Z,2.90
2018-11-23T11:45:13.440Z,3.00
2018-11-23T11:47:42.371Z,3.00
2018-11-23T11:50:11.369Z,3.00
2018-11-23T11:52:41.147Z,3.00
2018-11-23T11:55:11.968Z,2.80
2018-11-23T11:57:40.247Z,2.90
2018-11-23T12:00:12.301Z,2.90
2018-11-23T12:02:40.550Z,2.80
2018-11-23T12:05:10.646Z,2.80
2018-11-23T12:07:39.071Z,2.60
2018-11-23T12:10:10.338Z,2.80
2018-11-23T12:12:38.827Z,2.90
2018-11-23T12:15:08.493Z,2.90
2018-11-23T12:17:36.762Z,3.00
2018-11-23T12:20:07.664Z,2.90
2018-11-23T12:22:35.980Z,2.80
2018-11-23T12:25:04.340Z,2.90
2018-11-23T12:27:32.588Z,2.90
2018-11-23T12:30:00.848Z,2.80
2018-11-23T12:32:29.108Z,2.70
2018-11-23T12:34:57.308Z,2.50
2018-11-23T12:37:25.522Z,2.60
2018-11-23T12:39:53.897Z,2.40
2018-11-23T12:42:22.312Z,2.40
2018-11-23T12:44:50.580Z,2.40
2018-11-23T12:47:18.786Z,2.40
2018-11-23T12:49:47.027Z,2.40
2018-11-23T12:52:15.275Z,2.50
2018-11-23T12:54:43.488Z,2.70
2018-11-23T12:57:11.725Z,2.80
2018-11-23T12:59:40.108Z,2.90
2018-11-23T13:02:08.352Z,3.00
2018-11-23T13:04:36.595Z,3.10
2018-11-23T13:07:04.875Z,3.00
2018-11-23T13:09:33.171Z,3.10
2018-11-23T13:12:01.442Z,3.20
2018-11-23T13:14:29.691Z,3.20
2018-11-23T13:16:57.899Z,3.20
2018-11-23T13:19:26.149Z,3.30
2018-11-23T13:21:54.380Z,3.40
2018-11-23T13:24:22.651Z,3.30
2018-11-23T13:26:51.224Z,3.40
2018-11-23T13:29:19.484Z,3.50
2018-11-23T13:31:47.751Z,3.50
2018-11-23T13:34:15.967Z,3.60
2018-11-23T13:36:44.243Z,3.40
2018-11-23T13:39:12.461Z,3.40
2018-11-23T13:41:40.675Z,3.30
2018-11-23T13:44:09.056Z,3.30
2018-11-23T13:46:37.314Z,3.30
2018-11-23T13:49:05.709Z,3.30
2018-11-23T13:51:33.919Z,3.40
2018-11-23T13:54:02.147Z,3.40
2018-11-23T13:56:30.412Z,3.40
2018-11-23T13:58:58.691Z,3.50
2018-11-23T14:01:26.928Z,3.50
2018-11-23T14:03:55.147Z,3.60
2018-11-23T14:06:29.864Z,3.60
2018-11-23T14:08:58.156Z,3.70
2018-11-23T14:11:26.439Z,3.80
2018-11-23T14:13:54.739Z,3.70
2018-11-23T14:16:22.991Z,3.70
2018-11-23T14:18:51.227Z,3.60
2018-11-23T14:21:19.466Z,3.60
2018-11-23T14:23:47.703Z,3.50
2018-11-23T14:26:15.942Z,3.40
2018-11-23T14:28:44.195Z,3.30
2018-11-23T14:31:12.431Z,3.20
2018-11-23T14:33:40.647Z,3.20
2018-11-23T14:36:08.891Z,3.30
2018-11-23T14:38:37.124Z,3.30
2018-11-23T14:41:05.358Z,3.30
2018-11-23T14:43:33.600Z,3.40
2018-11-23T14:46:01.872Z,3.30
2018-11-23T14:48:30.122Z,3.30
2018-11-23T14:50:58.376Z,3.20
2018-11-23T14:53:26.760Z,3.30
2018-11-23T14:55:54.951Z,3.30
2018-11-23T14:58:23.180Z,3.20
2018-11-23T15:00:51.458Z,3.10
2018-11-23T15:03:19.674Z,3.20
2018-11-23T15:05:47.911Z,3.20
2018-11-23T15:08:16.148Z,3.30
2018-11-23T15:10:44.366Z,3.20
2018-11-23T15:13:12.695Z,3.20
2018-11-23T15:15:41.727Z,3.20
2018-11-23T15:18:10.295Z,3.20
2018-11-23T15:20:40.038Z,3.20
2018-11-23T15:23:09.743Z,3.20
2018-11-23T15:25:38.101Z,3.20
2018-11-23T15:28:06.935Z,3.30
2018-11-23T15:30:36.281Z,3.30
2018-11-23T15:33:05.184Z,3.30
2018-11-23T15:35:34.670Z,3.50
2018-11-23T15:38:06.055Z,3.40
2018-11-23T15:40:32.147Z,3.40
2018-11-23T15:43:02.809Z,3.30
2018-11-23T15:45:31.839Z,3.30
2018-11-23T15:48:00.584Z,3.30
2018-11-23T15:50:30.705Z,3.30
2018-11-23T15:52:59.463Z,3.30
2018-11-23T15:55:29.708Z,3.30
2018-11-23T15:58:05.747Z,3.20
2018-11-23T16:00:35.490Z,3.30
2018-11-23T16:03:03.911Z,3.20
2018-11-23T16:05:32.214Z,3.30
2018-11-23T16:08:02.046Z,3.30
2018-11-23T16:10:31.661Z,3.30
2018-11-23T16:13:00.863Z,3.40
2018-11-23T16:15:29.445Z,3.30
2018-11-23T16:17:58.246Z,3.40
2018-11-23T16:20:29.029Z,3.30
2018-11-23T16:22:58.823Z,3.30
2018-11-23T16:25:27.094Z,3.30
2018-11-23T16:27:57.731Z,3.40
2018-11-23T16:30:29.286Z,3.30
2018-11-23T16:32:58.798Z,3.30
2018-11-23T16:35:28.365Z,3.30
2018-11-23T16:37:57.802Z,3.30
2018-11-23T16:40:30.243Z,3.40
2018-11-23T16:42:59.271Z,3.60
2018-11-23T16:45:28.868Z,3.60
2018-11-23T16:47:58.049Z,3.70
2018-11-23T16:50:26.603Z,3.70
2018-11-23T16:52:55.239Z,3.70
2018-11-23T16:55:23.888Z,3.60
2018-11-23T16:58:01.090Z,3.50
2018-11-23T17:00:30.603Z,3.50
2018-11-23T17:03:00.333Z,3.40
2018-11-23T17:05:31.176Z,3.40
2018-11-23T17:07:59.415Z,3.30
2018-11-23T17:10:27.702Z,3.40
2018-11-23T17:12:55.974Z,3.30
2018-11-23T17:15:25.723Z,3.30
2018-11-23T17:17:53.987Z,3.20
2018-11-23T17:20:25.518Z,3.30
2018-11-23T17:22:54.861Z,3.30
2018-11-23T17:25:24.031Z,3.30
2018-11-23T17:27:53.321Z,3.30
2018-11-23T17:30:23.054Z,3.30
2018-11-23T17:32:51.340Z,3.30
2018-11-23T17:35:19.786Z,3.30
2018-11-23T17:37:48.019Z,3.30
2018-11-23T17:40:20.538Z,3.30
2018-11-23T17:42:48.827Z,3.40
2018-11-23T17:45:21.977Z,3.30
2018-11-23T17:47:50.804Z,3.20
2018-11-23T17:50:20.502Z,3.20
2018-11-23T17:52:49.154Z,3.20
2018-11-23T17:55:17.426Z,3.20
2018-11-23T17:57:46.243Z,3.30
2018-11-23T18:00:19.044Z,3.30
2018-11-23T18:02:47.985Z,3.30
2018-11-23T18:05:17.119Z,3.30
2018-11-23T18:07:45.551Z,3.20
2018-11-23T18:10:16.234Z,3.20
2018-11-23T18:12:45.020Z,3.40
2018-11-23T18:15:16.878Z,3.20
2018-11-23T18:17:45.779Z,3.20
2018-11-23T18:20:15.388Z,3.20
2018-11-23T18:22:45.318Z,3.20
2018-11-23T18:25:15.431Z,3.30
2018-11-23T18:27:44.330Z,3.20
2018-11-23T18:30:13.191Z,3.10
2018-11-23T18:32:41.520Z,3.10
2018-11-23T18:35:12.553Z,3.10
2018-11-23T18:37:40.963Z,3.10
2018-11-23T18:40:13.060Z,3.10
2018-11-23T18:42:41.384Z,3.10
2018-11-23T18:45:12.368Z,3.20
2018-11-23T18:47:41.539Z,3.20
2018-11-23T18:50:17.955Z,3.20
2018-11-23T18:52:46.280Z,3.10
2018-11-23T18:55:18.321Z,3.10
2018-11-23T18:57:43.031Z,3.10
2018-11-23T19:00:14.545Z,3.10
2018-11-23T19:02:43.831Z,3.10
2018-11-23T19:05:13.560Z,3.10
2018-11-23T19:07:41.763Z,3.10
2018-11-23T19:10:11.476Z,3.10
2018-11-23T19:12:39.753Z,3.10
2018-11-23T19:15:10.692Z,3.10
2018-11-23T19:17:38.900Z,3.00
2018-11-23T19:20:16.054Z,3.00
2018-11-23T19:22:45.627Z,3.00
2018-11-23T19:25:13.875Z,3.00
2018-11-23T19:27:42.133Z,2.80
2018-11-23T19:30:14.897Z,2.80
2018-11-23T19:32:43.110Z,2.80
2018-11-23T19:35:11.349Z,2.90
2018-11-23T19:37:39.610Z,2.90
2018-11-23T19:40:09.420Z,2.90
2018-11-23T19:42:37.727Z,2.90
2018-11-23T19:45:07.753Z,2.90
2018-11-23T19:47:35.988Z,2.90
2018-11-23T19:50:05.313Z,3.00
2018-11-23T19:52:33.542Z,3.00
2018-11-23T19:55:01.915Z,3.10
2018-11-23T19:57:30.159Z,3.10
2018-11-23T19:59:58.386Z,3.00
2018-11-23T20:02:26.625Z,2.90
2018-11-23T20:04:54.886Z,2.90
2018-11-23T20:07:23.115Z,3.00
2018-11-23T20:09:51.513Z,3.00
2018-11-23T20:12:19.756Z,3.00
2018-11-23T20:14:48.014Z,3.00
2018-11-23T20:17:16.241Z,3.00
2018-11-23T20:19:44.468Z,3.10
2018-11-23T20:22:12.659Z,3.10
2018-11-23T20:24:40.902Z,3.00
2018-11-23T20:27:09.107Z,3.00
2018-11-23T20:29:37.421Z,3.00
2018-11-23T20:32:05.703Z,3.00
2018-11-23T20:34:33.909Z,3.00
2018-11-23T20:37:02.188Z,3.00
2018-11-23T20:39:30.431Z,3.00
2018-11-23T20:41:58.656Z,3.00
2018-11-23T20:44:27.156Z,3.10
2018-11-23T20:46:55.484Z,3.10
2018-11-23T20:49:23.760Z,3.10
2018-11-23T20:51:52.118Z,3.10
2018-11-23T20:54:20.399Z,3.20
2018-11-23T20:56:48.717Z,3.30
2018-11-23T20:59:16.944Z,3.20
2018-11-23T21:01:45.171Z,3.20
2018-11-23T21:04:13.564Z,3.30
2018-11-23T21:06:41.775Z,3.30
2018-11-23T21:09:10.247Z,3.30
2018-11-23T21:11:38.784Z,3.40
2018-11-23T21:14:07.144Z,3.50
2018-11-23T21:16:35.650Z,3.50
2018-11-23T21:19:03.923Z,3.50
2018-11-23T21:21:32.182Z,3.50
2018-11-23T21:24:00.422Z,3.30
2018-11-23T21:26:28.626Z,3.30
2018-11-23T21:28:56.920Z,3.30
2018-11-23T21:31:25.142Z,3.30
2018-11-23T21:33:53.386Z,3.30
2018-11-23T21:36:21.645Z,3.30
2018-11-23T21:38:49.875Z,3.30
2018-11-23T21:41:18.180Z,3.30
2018-11-23T21:43:46.535Z,3.30
2018-11-23T21:46:14.772Z,3.30
2018-11-23T21:48:43.007Z,3.30
2018-11-23T21:51:11.270Z,3.30
2018-11-23T21:53:39.491Z,3.40
2018-11-23T21:56:09.451Z,3.40
2018-11-23T21:58:36.100Z,3.40
2018-11-23T22:01:04.356Z,3.50
2018-11-23T22:03:32.767Z,3.40
2018-11-23T22:06:01.167Z,3.50
2018-11-23T22:08:29.622Z,3.60
2018-11-23T22:10:57.954Z,3.60
2018-11-23T22:13:26.228Z,3.60
2018-11-23T22:15:54.544Z,3.70
2018-11-23T22:18:22.902Z,3.70
2018-11-23T22:20:51.276Z,3.90
2018-11-23T22:23:19.983Z,3.80
2018-11-23T22:25:48.197Z,3.60
2018-11-23T22:28:16.614Z,3.50
2018-11-23T22:30:45.079Z,3.40
2018-11-23T22:33:13.504Z,3.40
2018-11-23T22:35:48.120Z,3.50
2018-11-23T22:38:10.191Z,3.50
2018-11-23T22:40:38.400Z,3.70
2018-11-23T22:43:06.939Z,3.80
2018-11-23T22:45:35.179Z,3.90
2018-11-23T22:48:03.420Z,3.70
2018-11-23T22:50:31.835Z,3.60
2018-11-23T22:53:00.113Z,3.60
2018-11-23T22:55:28.338Z,3.70
2018-11-23T22:57:56.604Z,3.80
2018-11-23T23:00:31.541Z,3.80
2018-11-23T23:03:00.308Z,3.90
2018-11-23T23:05:28.584Z,3.90
2018-11-23T23:07:56.972Z,3.70
2018-11-23T23:10:25.351Z,3.70
2018-11-23T23:12:53.660Z,3.80
2018-11-23T23:15:22.315Z,4.00
2018-11-23T23:17:50.862Z,4.00
2018-11-23T23:20:20.352Z,4.00
2018-11-23T23:22:48.785Z,4.00
2018-11-23T23:25:17.367Z,3.90
2018-11-23T23:27:45.633Z,3.90
2018-11-23T23:30:16.255Z,3.90
2018-11-23T23:32:45.112Z,4.00
2018-11-23T23:35:14.292Z,4.00
2018-11-23T23:37:42.616Z,4.00
2018-11-23T23:40:14.084Z,3.90
2018-11-23T23:42:42.484Z,3.80
2018-11-23T23:45:12.062Z,3.60
2018-11-23T23:47:40.296Z,3.60
2018-11-23T23:50:11.061Z,3.70
2018-11-23T23:52:39.319Z,3.70
2018-11-23T23:55:08.437Z,3.60
2018-11-23T23:57:36.651Z,3.60
